Time;durP1;ratioP1;P1;durP2;ratioP2;P2;SDS_P1;SDS_P2;PMS_P1;PMS_P2;Temp;Humidity;BMP_temperature;BMP_pressure;BME280_temperature;BME280_humidity;BME280_pressure;Samples;Min_cycle;Max_cycle;Signal;HPM_P1;HPM_P2
2022/01/06 00:01:58;;;;;;;;;1.00;1.00;;;;;3.82;67.39;99019.28;5076255;27;45340;-78
2022/01/06 00:04:24;;;;;;;;;0.00;0.00;;;;;3.80;73.27;99026.28;5073254;28;45608;-78
2022/01/06 00:06:49;;;;;;;;;2.00;2.00;;;;;3.81;69.66;99017.56;5076990;27;45415;-78
2022/01/06 00:09:17;;;;;;;;;1.33;1.00;;;;;3.79;71.70;99017.59;5087833;27;45459;-78
2022/01/06 00:11:44;;;;;;;;;0.00;0.00;;;;;3.76;65.56;99040.22;5076737;27;45568;-78
2022/01/06 00:14:21;;;;;;;;;1.00;1.00;;;;;3.74;64.76;99031.56;5074764;27;45815;-78
2022/01/06 00:24:29;;;;;;;;;2.00;0.00;;;;;3.82;67.83;99027.13;5076723;28;45632;-79
2022/01/06 00:26:56;;;;;;;;;1.00;1.00;;;;;3.81;69.96;99033.22;5075320;28;46721;-78
2022/01/06 00:29:22;;;;;;;;;4.33;2.00;;;;;3.74;60.40;99027.22;5076241;27;45436;-78
2022/01/06 00:31:47;;;;;;;;;0.67;0.67;;;;;3.75;71.99;99036.75;5108910;27;45386;-78
2022/01/06 00:34:13;;;;;;;;;0.00;0.00;;;;;3.75;65.37;99041.13;5076827;27;45491;-79
2022/01/06 00:36:40;;;;;;;;;1.67;0.67;;;;;3.76;69.59;99032.41;5074923;27;47531;-78
2022/01/06 00:39:08;;;;;;;;;1.00;1.00;;;;;3.78;68.47;99035.88;5078657;27;45506;-78
2022/01/06 00:41:35;;;;;;;;;1.33;1.33;;;;;3.77;69.07;99048.03;5074235;28;45406;-78
2022/01/06 00:44:02;;;;;;;;;1.33;0.00;;;;;3.81;69.31;99057.53;5101975;27;45814;-79
2022/01/06 00:46:28;;;;;;;;;3.00;1.00;;;;;3.82;67.96;99040.16;5073915;28;47460;-79
2022/01/06 00:48:54;;;;;;;;;1.00;0.00;;;;;3.81;67.00;99057.53;5058080;28;45400;-78
2022/01/06 00:51:19;;;;;;;;;1.00;0.00;;;;;3.83;77.39;99053.19;5075480;28;45509;-79
2022/01/06 00:53:45;;;;;;;;;1.00;1.00;;;;;3.85;73.33;99060.97;5075536;27;45217;-79
2022/01/06 00:56:10;;;;;;;;;1.00;1.00;;;;;3.90;71.64;99071.31;5088277;27;48311;-79
2022/01/06 00:58:36;;;;;;;;;2.00;2.00;;;;;3.95;69.81;99054.72;5076485;27;45455;-78
2022/01/06 01:01:01;;;;;;;;;0.00;0.00;;;;;3.98;68.88;99069.47;5076107;27;45300;-78
2022/01/06 01:03:27;;;;;;;;;2.00;1.00;;;;;3.97;69.55;99063.41;5058653;28;45463;-78
2022/01/06 01:05:55;;;;;;;;;2.00;0.67;;;;;4.01;73.43;99069.44;5076327;28;45459;-78
2022/01/06 01:08:27;;;;;;;;;3.33;1.00;;;;;4.01;68.22;99077.25;5075175;28;45380;-79
2022/01/06 01:10:55;;;;;;;;;0.67;0.67;;;;;4.02;69.92;99081.59;5076240;27;45401;-78
2022/01/06 01:13:28;;;;;;;;;0.00;0.00;;;;;4.03;75.88;99078.94;5076200;28;45276;-78
2022/01/06 01:15:58;;;;;;;;;0.00;0.00;;;;;4.07;73.59;99079.75;5061465;28;46260;-78
2022/01/06 01:18:24;;;;;;;;;2.00;2.00;;;;;4.11;78.67;99078.84;5091404;27;45444;-78
2022/01/06 01:20:52;;;;;;;;;0.00;0.00;;;;;4.14;76.17;99084.88;5074864;28;45393;-78
2022/01/06 01:23:20;;;;;;;;;1.00;1.00;;;;;4.17;82.78;99090.06;5072946;28;45509;-78
2022/01/06 01:25:46;;;;;;;;;0.33;0.33;;;;;4.21;70.81;99096.94;5069673;28;47977;-78
2022/01/06 01:28:14;;;;;;;;;1.67;1.67;;;;;4.22;79.57;99098.66;5075622;27;45348;-79
2022/01/06 01:30:53;;;;;;;;;0.67;0.67;;;;;4.24;84.73;99101.25;5074728;28;45344;-79
2022/01/06 01:33:18;;;;;;;;;1.33;1.33;;;;;4.29;81.71;99115.09;5073231;28;45634;-79
2022/01/06 01:35:44;;;;;;;;;1.00;1.00;;;;;4.33;83.43;99115.91;5064238;28;46400;-79
2022/01/06 01:38:11;;;;;;;;;1.00;0.33;;;;;4.39;83.91;99115.81;5072465;28;45454;-79
2022/01/06 01:40:37;;;;;;;;;0.00;0.00;;;;;4.43;81.52;99125.31;5088842;27;45371;-79
2022/01/06 01:43:03;;;;;;;;;1.00;0.00;;;;;4.47;86.41;99121.78;5089594;27;45309;-79
2022/01/06 01:45:32;;;;;;;;;1.00;1.00;;;;;4.50;85.34;99130.44;5048690;28;46233;-78
2022/01/06 01:48:02;;;;;;;;;1.67;1.67;;;;;4.54;85.89;99132.09;5071777;28;45528;-79
2022/01/06 01:50:28;;;;;;;;;1.67;1.00;;;;;4.57;80.58;99132.03;5082011;27;45403;-79
2022/01/06 01:52:57;;;;;;;;;1.67;1.00;;;;;4.57;83.04;99131.19;5057397;28;45360;-78
2022/01/06 01:55:29;;;;;;;;;0.67;0.67;;;;;4.58;85.70;99130.28;5075131;28;46827;-79
2022/01/06 01:57:56;;;;;;;;;0.33;0.33;;;;;4.62;87.22;99133.72;5073629;27;45735;-78
2022/01/06 02:00:28;;;;;;;;;2.00;2.00;;;;;4.64;86.20;99135.44;5075214;27;45363;-79
2022/01/06 02:02:54;;;;;;;;;2.33;1.00;;;;;4.66;83.47;99132.81;5063094;28;45326;-79
2022/01/06 02:05:25;;;;;;;;;1.00;1.00;;;;;4.65;85.88;99131.94;5065509;28;48590;-79
2022/01/06 02:07:52;;;;;;;;;1.00;1.00;;;;;4.67;87.06;99129.31;5075353;27;45395;-78
2022/01/06 02:10:19;;;;;;;;;1.00;1.00;;;;;4.67;77.77;99132.78;5074087;28;45310;-79
2022/01/06 02:12:45;;;;;;;;;2.00;0.33;;;;;4.68;84.30;99131.03;5073538;28;45251;-79
2022/01/06 02:15:11;;;;;;;;;1.00;1.00;;;;;4.70;86.21;99139.69;5087424;27;46403;-78
2022/01/06 02:17:38;;;;;;;;;0.00;0.00;;;;;4.72;87.86;99137.91;5075301;27;45537;-79
2022/01/06 02:20:06;;;;;;;;;0.00;0.00;;;;;4.73;88.89;99142.25;5082921;27;45610;-79
2022/01/06 02:22:32;;;;;;;;;0.33;0.00;;;;;4.72;87.23;99151.81;5073445;28;45543;-79
2022/01/06 02:25:09;;;;;;;;;1.00;1.00;;;;;4.71;85.92;99141.41;5061252;27;46487;-78
2022/01/06 02:27:36;;;;;;;;;0.67;0.33;;;;;4.71;80.90;99147.47;5073784;28;45434;-78
2022/01/06 02:30:03;;;;;;;;;2.00;0.00;;;;;4.73;85.04;99152.69;5070563;27;45528;-78
2022/01/06 02:32:29;;;;;;;;;1.00;0.67;;;;;4.75;85.59;99154.38;5074902;27;45394;-79
2022/01/06 02:34:57;;;;;;;;;2.00;1.00;;;;;4.76;83.57;99150.03;5073154;28;47323;-79
2022/01/06 02:37:22;;;;;;;;;1.00;0.67;;;;;4.77;85.46;99151.75;5064991;28;45468;-79
2022/01/06 02:39:48;;;;;;;;;1.33;1.00;;;;;4.80;86.24;99156.94;5102620;27;45404;-78
2022/01/06 02:42:13;;;;;;;;;0.33;0.33;;;;;4.80;84.10;99154.31;5074861;27;45383;-79
2022/01/06 02:44:40;;;;;;;;;1.00;1.00;;;;;4.82;86.91;99156.03;5073503;28;47003;-79
2022/01/06 02:47:07;;;;;;;;;1.00;1.00;;;;;4.81;86.03;99154.31;5073726;28;45579;-79
2022/01/06 02:49:34;;;;;;;;;1.00;0.00;;;;;4.80;82.03;99162.16;5075410;27;45445;-79
2022/01/06 02:51:59;;;;;;;;;0.00;0.00;;;;;4.75;83.48;99159.63;5056808;28;45409;-79
2022/01/06 02:54:25;;;;;;;;;1.67;0.33;;;;;4.74;87.48;99157.03;5075546;28;48441;-79
2022/01/06 02:56:52;;;;;;;;;1.67;0.00;;;;;4.75;80.98;99153.53;5077339;28;45765;-79
2022/01/06 02:59:18;;;;;;;;;1.00;1.00;;;;;4.72;85.64;99148.34;5074557;27;45398;-79
2022/01/06 03:01:44;;;;;;;;;4.33;1.00;;;;;4.68;85.92;99155.41;5077166;27;45339;-79
2022/01/06 03:04:12;;;;;;;;;1.00;1.00;;;;;4.66;82.17;99154.56;5078110;27;45558;-79
2022/01/06 03:06:38;;;;;;;;;1.00;1.00;;;;;4.65;80.74;99160.66;5077920;27;45546;-79
2022/01/06 03:09:05;;;;;;;;;2.33;0.67;;;;;4.64;87.02;99158.06;5054363;28;45502;-80
2022/01/06 03:11:33;;;;;;;;;1.00;1.00;;;;;4.65;86.54;99155.44;5069456;28;45341;-78
2022/01/06 03:13:58;;;;;;;;;2.00;0.33;;;;;4.68;87.69;99159.75;5076703;28;47144;-79
2022/01/06 03:16:24;;;;;;;;;0.67;0.67;;;;;4.70;87.24;99160.56;5078310;27;45268;-80
2022/01/06 03:18:49;;;;;;;;;1.00;0.00;;;;;4.71;85.81;99170.13;5060123;28;45301;-79
2022/01/06 03:21:15;;;;;;;;;0.00;0.00;;;;;4.72;86.96;99166.63;5078183;27;45391;-79
2022/01/06 03:23:40;;;;;;;;;6.00;2.00;;;;;4.72;88.81;99154.44;5078025;27;46085;-79
2022/01/06 03:26:06;;;;;;;;;1.00;0.00;;;;;4.72;88.19;99158.78;5069147;28;45422;-79
2022/01/06 03:28:32;;;;;;;;;1.67;1.00;;;;;4.74;86.74;99162.25;5071846;28;45444;-79
2022/01/06 03:30:58;;;;;;;;;0.00;0.00;;;;;4.75;85.01;99163.97;5068886;28;45665;-79
2022/01/06 03:33:23;;;;;;;;;2.00;1.00;;;;;4.74;84.49;99150.06;5077315;27;47042;-79
2022/01/06 03:35:49;;;;;;;;;1.33;1.33;;;;;4.70;83.06;99158.81;5077800;27;45448;-80
2022/01/06 03:38:15;;;;;;;;;0.00;0.00;;;;;4.65;85.54;99170.25;5076529;27;45388;-79
2022/01/06 03:40:40;;;;;;;;;2.33;0.00;;;;;4.65;88.63;99168.50;5076192;28;45327;-79
2022/01/06 03:43:07;;;;;;;;;3.00;2.00;;;;;4.61;76.42;99182.47;5059348;28;48514;-79
2022/01/06 03:45:34;;;;;;;;;1.00;1.00;;;;;4.57;83.72;99178.19;5077633;27;45293;-79
2022/01/06 03:48:00;;;;;;;;;2.00;2.00;;;;;4.52;80.14;99177.41;5076681;28;45514;-80
2022/01/06 03:50:26;;;;;;;;;1.00;1.00;;;;;4.45;80.63;99173.16;5076456;28;45572;-80
2022/01/06 03:52:52;;;;;;;;;3.33;0.67;;;;;4.40;71.83;99180.16;5056167;28;47106;-79
2022/01/06 03:55:19;;;;;;;;;2.00;2.00;;;;;4.37;80.34;99186.28;5068793;28;45470;-79
2022/01/06 03:57:46;;;;;;;;;0.33;0.33;;;;;4.34;86.24;99186.34;5077853;27;45310;-80
2022/01/06 04:00:15;;;;;;;;;0.67;0.67;;;;;4.36;85.07;99194.13;5075148;27;45483;-79
2022/01/06 04:02:41;;;;;;;;;1.00;1.00;;;;;4.34;77.36;99188.97;5077363;27;46199;-79
2022/01/06 04:05:08;;;;;;;;;2.33;1.33;;;;;4.33;86.85;99183.78;5075482;28;45490;-79
2022/01/06 04:07:34;;;;;;;;;1.00;1.00;;;;;4.34;84.33;99199.41;5077032;27;45447;-79
2022/01/06 04:10:00;;;;;;;;;1.67;1.00;;;;;4.37;88.57;99193.25;5077551;27;45557;-79
2022/01/06 04:12:26;;;;;;;;;1.67;1.67;;;;;4.38;81.82;99200.22;5077058;27;46387;-79
2022/01/06 04:14:52;;;;;;;;;1.00;1.00;;;;;4.39;83.15;99212.38;5077108;27;45244;-79
2022/01/06 04:17:17;;;;;;;;;3.00;1.33;;;;;4.39;87.78;99199.31;5059280;28;45332;-79
2022/01/06 04:19:43;;;;;;;;;1.33;1.00;;;;;4.43;90.56;99203.63;5076706;27;45596;-79
2022/01/06 04:22:09;;;;;;;;;1.00;0.67;;;;;4.45;90.61;99207.06;5076871;28;46293;-79
2022/01/06 04:24:34;;;;;;;;;0.33;0.33;;;;;4.45;88.96;99204.47;5073102;27;45491;-79
2022/01/06 04:27:01;;;;;;;;;1.33;1.33;;;;;4.47;85.59;99203.56;5087821;27;45425;-79
2022/01/06 04:29:27;;;;;;;;;0.00;0.00;;;;;4.45;89.57;99202.72;5068568;28;45451;-79
2022/01/06 04:31:53;;;;;;;;;1.00;0.00;;;;;4.48;88.01;99207.03;5075185;27;45403;-79
2022/01/06 04:34:18;;;;;;;;;2.67;1.33;;;;;4.50;84.66;99194.84;5048417;28;45482;-79
2022/01/06 04:36:52;;;;;;;;;1.00;1.00;;;;;4.49;90.70;99195.72;5074951;28;45340;-79
2022/01/06 04:39:18;;;;;;;;;3.00;3.00;;;;;4.49;89.01;99206.16;5075738;28;45360;-80
2022/01/06 04:41:44;;;;;;;;;1.00;1.00;;;;;4.52;88.24;99213.94;5075978;28;46386;-79
2022/01/06 04:44:09;;;;;;;;;1.00;1.00;;;;;4.54;88.00;99201.72;5076391;27;45344;-80
2022/01/06 04:46:35;;;;;;;;;1.00;1.00;;;;;4.55;88.38;99217.34;5076441;27;45377;-79
2022/01/06 04:49:00;;;;;;;;;5.33;3.00;;;;;4.56;89.01;99205.16;5076729;28;45499;-79
2022/01/06 04:51:26;;;;;;;;;0.00;0.00;;;;;4.56;88.99;99211.25;5092245;27;48064;-79
2022/01/06 04:53:51;;;;;;;;;2.00;2.00;;;;;4.55;88.44;99201.69;5054271;28;45354;-79
2022/01/06 04:56:16;;;;;;;;;0.67;0.67;;;;;4.56;88.44;99216.47;5091417;27;45350;-80
2022/01/06 04:58:42;;;;;;;;;1.33;1.33;;;;;4.54;89.78;99220.84;5075053;27;45520;-80
2022/01/06 05:01:07;;;;;;;;;2.00;0.67;;;;;4.56;87.84;99208.63;5075179;27;46552;-80
2022/01/06 05:03:33;;;;;;;;;1.00;1.00;;;;;4.57;89.06;99235.59;5075948;27;45308;-80
2022/01/06 05:05:59;;;;;;;;;1.00;1.00;;;;;4.56;88.57;99231.28;5074965;28;45530;-80
2022/01/06 05:08:26;;;;;;;;;1.00;1.00;;;;;4.54;89.14;99231.28;5075995;27;45163;-80
2022/01/06 05:10:52;;;;;;;;;3.00;1.33;;;;;4.55;87.94;99234.75;5075097;28;47487;-80
2022/01/06 05:13:19;;;;;;;;;0.33;0.33;;;;;4.54;89.07;99235.66;5075956;27;45581;-80
2022/01/06 05:15:46;;;;;;;;;0.67;0.67;;;;;4.52;88.80;99240.06;5071737;28;45442;-80
2022/01/06 05:18:11;;;;;;;;;3.00;1.00;;;;;4.50;87.71;99229.63;5084074;27;45461;-80
2022/01/06 05:20:40;;;;;;;;;1.67;1.00;;;;;4.54;90.01;99238.25;5076258;27;46323;-80
2022/01/06 05:23:05;;;;;;;;;2.00;2.00;;;;;4.55;88.40;99237.38;5071484;28;45818;-80
2022/01/06 05:25:32;;;;;;;;;1.67;1.67;;;;;4.59;87.82;99259.09;5072004;28;45155;-79
2022/01/06 05:27:57;;;;;;;;;5.33;1.00;;;;;4.54;80.80;99248.69;5071217;27;45555;-79
2022/01/06 05:30:23;;;;;;;;;1.33;0.00;;;;;4.51;82.87;99254.00;5098464;27;46741;-78
2022/01/06 05:32:49;;;;;;;;;1.00;1.00;;;;;4.49;87.96;99255.75;5101383;27;45456;-79
2022/01/06 05:35:14;;;;;;;;;2.00;2.00;;;;;4.47;87.78;99247.06;5074375;27;45474;-79
2022/01/06 05:37:40;;;;;;;;;1.00;1.00;;;;;4.42;86.49;99254.09;5087954;27;45502;-79
2022/01/06 05:40:06;;;;;;;;;0.00;0.00;;;;;4.41;88.53;99255.84;5064567;28;47691;-79
2022/01/06 05:42:31;;;;;;;;;0.00;0.00;;;;;4.40;89.16;99253.25;5076080;27;45388;-78
2022/01/06 05:44:57;;;;;;;;;2.00;0.33;;;;;4.40;88.96;99261.06;5074775;27;45365;-78
2022/01/06 05:47:22;;;;;;;;;1.67;1.67;;;;;4.39;87.87;99256.75;5075771;27;45175;-78
2022/01/06 05:49:48;;;;;;;;;1.67;1.00;;;;;4.41;85.78;99268.88;5071144;28;46580;-78
2022/01/06 05:52:13;;;;;;;;;1.67;1.00;;;;;4.40;87.48;99258.47;5074088;28;45265;-78
2022/01/06 05:54:39;;;;;;;;;1.00;1.00;;;;;4.40;88.93;99261.94;5074350;28;45399;-78
2022/01/06 05:57:06;;;;;;;;;1.00;1.00;;;;;4.42;89.39;99260.19;5073904;28;45922;-80
2022/01/06 05:59:32;;;;;;;;;7.67;1.00;;;;;4.43;89.65;99272.34;5070868;27;46145;-78
2022/01/06 06:01:59;;;;;;;;;1.00;1.00;;;;;4.43;83.09;99281.94;5075392;28;45394;-80
2022/01/06 06:04:25;;;;;;;;;1.00;1.00;;;;;4.40;86.85;99261.06;5075500;27;45420;-80
2022/01/06 06:06:50;;;;;;;;;1.00;1.00;;;;;4.39;87.26;99268.03;5107886;27;45477;-80
2022/01/06 06:09:16;;;;;;;;;1.67;1.00;;;;;4.40;87.06;99280.22;5074349;28;46264;-80
2022/01/06 06:11:42;;;;;;;;;1.33;1.00;;;;;4.41;86.10;99278.47;5074707;27;45349;-79
2022/01/06 06:14:07;;;;;;;;;1.33;1.33;;;;;4.39;86.15;99275.00;5105952;27;45428;-80
2022/01/06 06:16:50;;;;;;;;;3.00;3.00;;;;;4.33;82.84;99275.97;5074827;27;45301;-78
2022/01/06 06:19:16;;;;;;;;;0.00;0.00;;;;;4.31;85.38;99287.31;5074360;27;45523;-78
2022/01/06 06:21:41;;;;;;;;;1.00;1.00;;;;;4.28;81.51;99282.13;5073038;28;45838;-78
2022/01/06 06:24:08;;;;;;;;;3.67;2.00;;;;;4.24;81.84;99281.28;5074947;27;45409;-79
2022/01/06 06:26:34;;;;;;;;;1.00;1.00;;;;;4.23;86.81;99292.59;5073129;28;45536;-78
2022/01/06 06:28:59;;;;;;;;;3.00;3.00;;;;;4.26;86.61;99296.94;5073235;28;46590;-78
2022/01/06 06:31:27;;;;;;;;;1.67;1.67;;;;;4.27;88.71;99291.69;5073201;28;45359;-78
2022/01/06 06:33:52;;;;;;;;;2.00;1.00;;;;;4.28;89.36;99297.78;5068003;27;45451;-78
2022/01/06 06:36:18;;;;;;;;;0.67;0.67;;;;;4.27;87.24;99294.31;5068362;28;45324;-80
2022/01/06 06:38:49;;;;;;;;;1.00;1.00;;;;;4.32;87.13;99289.91;5065552;28;46471;-80
2022/01/06 06:41:14;;;;;;;;;2.00;1.00;;;;;4.32;87.30;99295.13;5072499;28;45407;-80
2022/01/06 06:43:39;;;;;;;;;3.67;2.00;;;;;4.35;87.84;99294.22;5073612;27;45429;-81
2022/01/06 06:46:05;;;;;;;;;1.67;1.67;;;;;4.34;87.20;99306.41;5099203;27;45909;-80
2022/01/06 06:48:30;;;;;;;;;2.00;2.00;;;;;4.31;87.04;99297.75;5068306;27;46979;-80
2022/01/06 06:50:58;;;;;;;;;3.00;3.00;;;;;4.31;88.09;99295.13;5066336;27;45461;-80
2022/01/06 06:53:23;;;;;;;;;2.67;1.00;;;;;4.27;87.63;99299.53;5088825;27;45638;-80
2022/01/06 06:55:50;;;;;;;;;2.00;1.00;;;;;4.27;87.85;99301.28;5073397;27;45656;-80
2022/01/06 06:58:15;;;;;;;;;6.00;3.00;;;;;4.26;88.13;99304.75;5072813;28;47409;-81
2022/01/06 07:00:41;;;;;;;;;2.00;2.00;;;;;4.26;87.81;99305.63;5073881;27;45469;-80
2022/01/06 07:03:07;;;;;;;;;2.67;1.00;;;;;4.26;87.75;99315.19;5074438;27;45358;-80
2022/01/06 07:05:32;;;;;;;;;1.33;1.33;;;;;4.21;86.79;99310.88;5073750;27;45324;-80
2022/01/06 07:07:58;;;;;;;;;1.00;1.00;;;;;4.27;87.13;99315.19;5073993;27;45372;-80
2022/01/06 07:10:24;;;;;;;;;1.67;1.00;;;;;4.27;87.40;99320.41;5071576;28;45391;-80
2022/01/06 07:12:50;;;;;;;;;2.67;2.67;;;;;4.27;88.55;99319.53;5072605;27;45210;-80
2022/01/06 07:15:17;;;;;;;;;4.00;2.67;;;;;4.22;88.08;99320.44;5067750;27;45517;-80
2022/01/06 07:17:43;;;;;;;;;2.33;2.33;;;;;4.16;87.89;99323.16;5071599;28;45515;-80
2022/01/06 07:20:10;;;;;;;;;2.00;2.00;;;;;4.13;88.21;99328.38;5069560;28;46288;-80
2022/01/06 07:22:36;;;;;;;;;2.33;2.33;;;;;4.10;88.28;99338.84;5073296;27;45559;-80
2022/01/06 07:25:04;;;;;;;;;5.00;5.00;;;;;4.07;88.84;99328.44;5065101;28;45646;-79
2022/01/06 07:27:29;;;;;;;;;2.00;2.00;;;;;4.04;88.20;99341.50;5071251;28;48258;-79
2022/01/06 07:29:55;;;;;;;;;1.00;1.00;;;;;4.02;88.73;99340.66;5061250;27;45773;-80
2022/01/06 07:32:21;;;;;;;;;1.00;1.00;;;;;3.99;88.38;99345.06;5073212;27;45459;-80
2022/01/06 07:34:46;;;;;;;;;3.67;2.67;;;;;3.97;88.78;99342.47;5071782;28;45541;-80
2022/01/06 07:37:12;;;;;;;;;2.67;2.67;;;;;3.93;88.64;99342.50;5073547;27;45472;-79
2022/01/06 07:39:37;;;;;;;;;4.33;3.00;;;;;3.88;89.61;99345.16;5063835;27;45459;-80
2022/01/06 07:42:04;;;;;;;;;5.00;3.00;;;;;3.86;87.90;99346.91;5076541;27;45364;-85
2022/01/06 07:44:30;;;;;;;;;2.00;1.67;;;;;3.83;87.79;99347.84;5062378;28;45498;-80
2022/01/06 07:46:56;;;;;;;;;2.00;2.00;;;;;3.82;88.07;99347.84;5077103;27;47363;-80
2022/01/06 07:49:22;;;;;;;;;6.00;3.00;;;;;3.84;88.69;99357.38;5066386;28;45591;-78
2022/01/06 07:51:47;;;;;;;;;3.00;3.00;;;;;3.85;87.89;99359.09;5092151;27;45416;-80
2022/01/06 07:54:12;;;;;;;;;1.33;1.33;;;;;3.91;88.26;99359.91;5077005;27;45543;-81
2022/01/06 07:56:39;;;;;;;;;1.00;1.00;;;;;3.94;88.03;99363.38;5075585;28;48433;-81
2022/01/06 07:59:06;;;;;;;;;2.67;2.67;;;;;3.98;87.44;99354.63;5071616;28;45294;-81
2022/01/06 08:01:32;;;;;;;;;2.67;2.00;;;;;4.03;88.49;99360.66;5076999;27;45662;-80
2022/01/06 08:03:57;;;;;;;;;4.33;4.33;;;;;4.06;88.12;99355.41;5090068;27;45573;-81
2022/01/06 08:06:23;;;;;;;;;9.33;6.00;;;;;4.12;88.18;99359.72;5076680;27;46250;-81
2022/01/06 08:08:48;;;;;;;;;3.00;3.00;;;;;4.15;87.71;99367.50;5076593;27;45633;-80
2022/01/06 08:11:15;;;;;;;;;5.33;3.00;;;;;4.19;88.66;99374.41;5075932;28;45448;-81
2022/01/06 08:13:40;;;;;;;;;4.33;3.67;;;;;4.20;87.96;99377.00;5075242;28;45360;-80
2022/01/06 08:16:07;;;;;;;;;5.67;2.67;;;;;4.21;87.79;99377.84;5076607;27;45482;-80
2022/01/06 08:18:33;;;;;;;;;3.00;3.00;;;;;4.24;87.57;99383.06;5072221;28;45559;-81
2022/01/06 08:21:00;;;;;;;;;3.00;3.00;;;;;4.29;87.85;99383.00;5076320;27;45759;-80
2022/01/06 08:23:25;;;;;;;;;2.33;2.33;;;;;4.33;87.64;99382.09;5075455;28;45325;-80
2022/01/06 08:25:51;;;;;;;;;2.00;2.00;;;;;4.37;87.42;99384.66;5056447;28;46786;-81
2022/01/06 08:28:16;;;;;;;;;1.67;1.33;;;;;4.42;87.38;99380.25;5075832;27;45484;-80
2022/01/06 08:30:42;;;;;;;;;2.33;2.33;;;;;4.46;86.77;99379.34;5072467;28;45345;-80
2022/01/06 08:33:08;;;;;;;;;2.00;2.00;;;;;4.52;86.80;99389.69;5072065;28;45455;-81
2022/01/06 08:35:34;;;;;;;;;2.33;2.33;;;;;4.57;86.75;99381.81;5073724;28;46016;-81
2022/01/06 08:38:02;;;;;;;;;3.00;3.00;;;;;4.65;86.90;99392.19;5075837;27;45495;-81
2022/01/06 08:40:30;;;;;;;;;1.67;1.33;;;;;4.72;86.80;99385.97;5060670;28;45264;-81
2022/01/06 08:42:55;;;;;;;;;5.00;4.00;;;;;4.77;86.48;99392.03;5071533;28;45716;-81
2022/01/06 08:45:22;;;;;;;;;3.00;3.00;;;;;4.81;86.96;99393.72;5067827;27;45433;-80
2022/01/06 08:47:48;;;;;;;;;2.33;2.33;;;;;4.85;86.60;99395.41;5090856;27;45424;-80
2022/01/06 08:50:15;;;;;;;;;1.67;1.67;;;;;4.90;86.04;99390.97;5073342;27;45530;-80
2022/01/06 08:52:42;;;;;;;;;3.33;3.00;;;;;4.97;86.40;99392.63;5073988;28;45430;-80
2022/01/06 08:55:09;;;;;;;;;2.33;2.00;;;;;5.05;85.86;99401.22;5075886;27;46879;-80
2022/01/06 08:57:35;;;;;;;;;1.00;1.00;;;;;5.17;86.03;99405.44;5074429;28;45278;-80
2022/01/06 09:00:04;;;;;;;;;5.33;3.00;;;;;5.25;84.74;99400.94;5075588;27;45311;-80
2022/01/06 09:02:29;;;;;;;;;4.33;3.00;;;;;5.31;85.09;99408.72;5074551;27;45450;-80
2022/01/06 09:04:59;;;;;;;;;1.33;1.33;;;;;5.36;84.34;99401.69;5073606;27;47050;-80
2022/01/06 09:07:25;;;;;;;;;5.33;4.00;;;;;5.44;85.59;99397.19;5075304;27;45465;-80
2022/01/06 09:09:50;;;;;;;;;12.33;9.33;;;;;5.48;85.36;99396.25;5075138;27;45371;-80
2022/01/06 09:12:18;;;;;;;;;9.67;8.00;;;;;5.47;84.47;99394.53;5074252;28;45547;-80
2022/01/06 09:14:45;;;;;;;;;11.00;7.33;;;;;5.49;85.23;99400.59;5075521;27;46743;-80
2022/01/06 09:17:10;;;;;;;;;8.00;6.00;;;;;5.53;85.08;99397.03;5075507;28;45398;-80
2022/01/06 09:19:35;;;;;;;;;3.67;3.00;;;;;5.55;85.27;99400.50;5075827;27;45398;-81
2022/01/06 09:22:01;;;;;;;;;6.33;6.00;;;;;5.56;84.42;99394.38;5073781;27;45437;-80
2022/01/06 09:24:28;;;;;;;;;3.00;3.00;;;;;5.60;85.92;99390.84;5074388;28;46169;-80
2022/01/06 09:26:54;;;;;;;;;3.67;3.00;;;;;5.60;82.52;99397.81;5074346;28;45429;-80
2022/01/06 09:29:19;;;;;;;;;4.00;3.00;;;;;5.54;83.71;99398.75;5080880;27;45436;-80
2022/01/06 09:31:45;;;;;;;;;6.00;1.67;;;;;5.51;82.62;99393.59;5072727;28;45657;-80
2022/01/06 09:34:11;;;;;;;;;3.00;3.00;;;;;5.52;83.08;99400.56;5070813;28;45780;-80
2022/01/06 09:36:40;;;;;;;;;2.67;2.00;;;;;5.56;84.19;99399.59;5072766;28;45387;-80
2022/01/06 09:39:07;;;;;;;;;6.00;3.00;;;;;5.59;85.68;99406.53;5073716;28;45449;-81
2022/01/06 09:41:34;;;;;;;;;8.33;7.67;;;;;5.58;83.82;99394.34;5087164;27;45371;-81
2022/01/06 09:44:00;;;;;;;;;5.00;4.00;;;;;5.64;84.22;99391.66;5066583;28;46093;-81
2022/01/06 09:46:27;;;;;;;;;6.67;4.00;;;;;5.66;84.67;99389.88;5069284;28;45190;-81
2022/01/06 09:48:57;;;;;;;;;7.00;3.33;;;;;5.67;84.11;99407.31;5082037;27;45348;-81
2022/01/06 09:51:24;;;;;;;;;4.00;4.00;;;;;5.66;82.74;99399.47;5074086;28;45553;-81
2022/01/06 09:53:54;;;;;;;;;2.33;2.33;;;;;5.63;83.37;99391.69;5070609;28;48257;-81
2022/01/06 09:56:20;;;;;;;;;4.33;3.00;;;;;5.60;82.69;99396.06;5074066;28;45341;-81
2022/01/06 09:58:46;;;;;;;;;2.33;2.33;;;;;5.61;82.70;99391.69;5073131;28;45363;-81
2022/01/06 10:01:12;;;;;;;;;3.00;3.00;;;;;5.63;83.79;99392.53;5075365;28;45445;-80
2022/01/06 10:03:45;;;;;;;;;4.00;3.00;;;;;5.65;82.63;99395.13;5053765;28;45515;-80
2022/01/06 10:06:17;;;;;;;;;6.33;4.00;;;;;5.66;81.88;99396.88;5044588;28;45358;-80
2022/01/06 10:08:59;;;;;;;;;3.67;3.00;;;;;5.69;82.60;99387.22;5073695;28;45924;-80
2022/01/06 10:11:26;;;;;;;;;4.00;4.00;;;;;5.72;82.28;99389.75;5073499;28;45375;-79
2022/01/06 10:13:56;;;;;;;;;2.00;2.00;;;;;5.79;82.94;99394.03;5073064;28;46387;-79
2022/01/06 10:16:22;;;;;;;;;2.67;2.00;;;;;5.79;83.44;99387.91;5072488;28;45396;-80
2022/01/06 10:19:20;;;;;;;;;2.33;2.00;;;;;5.80;82.47;99389.66;5073873;28;45366;-79
2022/01/06 10:21:56;;;;;;;;;4.67;4.67;;;;;5.79;81.42;99390.53;5072699;27;45631;-80
2022/01/06 10:24:24;;;;;;;;;2.00;2.00;;;;;5.82;81.77;99391.34;5069298;28;47675;-80
2022/01/06 10:26:58;;;;;;;;;1.00;1.00;;;;;5.85;82.09;99393.94;5086557;27;45483;-80
2022/01/06 10:29:32;;;;;;;;;1.00;1.00;;;;;5.90;81.90;99396.47;5065511;28;45879;-80
2022/01/06 10:32:09;;;;;;;;;3.00;2.00;;;;;5.91;81.76;99395.59;5072715;28;45490;-80
2022/01/06 10:34:39;;;;;;;;;3.00;3.00;;;;;5.88;81.22;99403.44;5061794;27;46512;-80
2022/01/06 10:37:24;;;;;;;;;3.67;3.67;;;;;5.88;83.01;99395.59;5105476;27;45340;-80
2022/01/06 10:39:52;;;;;;;;;3.33;3.33;;;;;5.88;80.85;99398.22;5064913;27;45427;-80
2022/01/06 10:42:32;;;;;;;;;2.67;2.67;;;;;5.91;80.41;99401.69;5074870;27;45549;-80
2022/01/06 10:45:07;;;;;;;;;2.00;2.00;;;;;5.88;81.45;99396.50;5063218;28;46162;-80
2022/01/06 10:47:56;;;;;;;;;6.00;4.00;;;;;5.90;81.08;99399.09;5074197;27;45402;-80
2022/01/06 10:50:26;;;;;;;;;2.67;2.67;;;;;5.92;81.31;99392.94;5069185;28;45445;-80
2022/01/06 10:52:55;;;;;;;;;2.67;2.00;;;;;5.92;82.05;99394.69;5070781;28;45445;-80
2022/01/06 10:55:29;;;;;;;;;5.33;2.00;;;;;5.88;81.39;99396.50;5068022;28;48162;-80
2022/01/06 10:58:03;;;;;;;;;4.00;2.00;;;;;5.88;81.08;99395.59;5073865;28;45372;-80
2022/01/06 11:00:33;;;;;;;;;8.67;6.00;;;;;5.91;81.34;99398.19;5057305;28;45391;-80
2022/01/06 11:03:12;;;;;;;;;4.00;3.33;;;;;5.92;82.39;99390.34;5074576;27;45360;-81
2022/01/06 11:05:43;;;;;;;;;3.00;3.00;;;;;5.89;81.05;99398.22;5073923;28;45253;-80
2022/01/06 11:08:10;;;;;;;;;2.33;2.33;;;;;5.92;80.75;99392.94;5072360;28;45534;-80
2022/01/06 11:10:39;;;;;;;;;3.67;2.00;;;;;5.93;79.33;99392.06;5074288;27;45375;-81
2022/01/06 11:13:07;;;;;;;;;2.00;2.00;;;;;5.92;80.50;99394.69;5074326;27;45261;-82
2022/01/06 11:15:34;;;;;;;;;5.33;4.00;;;;;5.88;81.64;99388.66;5073132;28;48099;-82
2022/01/06 11:18:01;;;;;;;;;2.67;2.00;;;;;5.87;79.58;99401.72;5085660;27;45312;-81
2022/01/06 11:20:27;;;;;;;;;4.00;2.00;;;;;5.89;81.38;99394.75;5077045;27;45330;-82
2022/01/06 11:22:55;;;;;;;;;3.33;2.00;;;;;5.88;80.78;99390.38;5077214;27;45517;-81
2022/01/06 11:25:35;;;;;;;;;2.00;2.00;;;;;5.87;80.34;99396.50;5070688;28;46248;-81
2022/01/06 11:28:08;;;;;;;;;2.00;2.00;;;;;5.91;81.18;99401.69;5077885;27;45649;-81
2022/01/06 11:30:47;;;;;;;;;3.00;3.00;;;;;5.95;79.71;99395.53;5055179;28;45398;-81
2022/01/06 11:33:14;;;;;;;;;3.67;3.67;;;;;6.04;80.07;99401.47;5088411;27;45481;-81
2022/01/06 11:35:53;;;;;;;;;2.33;2.00;;;;;6.12;79.43;99400.47;5066848;27;47004;-82
2022/01/06 11:38:22;;;;;;;;;3.67;2.67;;;;;6.22;79.47;99395.91;5074378;28;45373;-81
2022/01/06 11:40:49;;;;;;;;;3.00;1.67;;;;;6.28;79.00;99396.69;5074574;28;45372;-81
2022/01/06 11:43:15;;;;;;;;;4.00;2.33;;;;;6.35;79.24;99397.44;5076561;28;45178;-81
2022/01/06 11:45:40;;;;;;;;;4.00;3.00;;;;;6.40;79.39;99402.56;5072426;27;46031;-81
2022/01/06 11:48:14;;;;;;;;;3.33;3.33;;;;;6.46;76.44;99399.84;5077520;27;45558;-81
2022/01/06 11:50:45;;;;;;;;;3.00;2.00;;;;;6.52;79.03;99405.84;5102450;27;45423;-81